createdAt,value
2019-01-15T00:01:15.731Z,1.24
2019-01-15T00:03:44.381Z,1.17
2019-01-15T00:06:12.994Z,1.21
2019-01-15T00:08:42.803Z,1.25
2019-01-15T00:11:11.236Z,1.24
2019-01-15T00:13:40.677Z,1.32
2019-01-15T00:16:09.362Z,1.29
2019-01-15T00:18:41.405Z,1.32
2019-01-15T00:21:11.061Z,1.36
2019-01-15T00:23:42.333Z,1.43
2019-01-15T00:26:11.554Z,1.43
2019-01-15T00:28:40.621Z,1.41
2019-01-15T00:31:09.196Z,1.40
2019-01-15T00:33:38.157Z,1.34
2019-01-15T00:36:06.965Z,1.36
2019-01-15T00:38:35.653Z,1.27
2019-01-15T00:41:04.243Z,1.25
2019-01-15T00:43:33.905Z,1.26
2019-01-15T00:46:02.408Z,1.25
2019-01-15T00:48:31.291Z,1.29
2019-01-15T00:50:59.758Z,1.34
2019-01-15T00:53:28.741Z,1.22
2019-01-15T00:55:57.922Z,1.31
2019-01-15T00:58:28.326Z,1.32
2019-01-15T01:00:58.170Z,1.37
2019-01-15T01:03:26.895Z,1.53
2019-01-15T01:05:55.535Z,1.50
2019-01-15T01:08:24.360Z,1.53
2019-01-15T01:10:55.546Z,1.56
2019-01-15T01:13:24.200Z,1.57
2019-01-15T01:15:52.805Z,1.52
2019-01-15T01:18:22.868Z,1.60
2019-01-15T01:20:51.593Z,1.62
2019-01-15T01:23:19.972Z,1.63
2019-01-15T01:25:51.152Z,1.64
2019-01-15T01:28:20.095Z,1.75
2019-01-15T01:30:49.882Z,1.75
2019-01-15T01:33:19.348Z,1.73
2019-01-15T01:35:50.843Z,1.76
2019-01-15T01:38:21.328Z,1.71
2019-01-15T01:40:50.147Z,1.63
2019-01-15T01:43:18.643Z,1.63
2019-01-15T01:45:48.296Z,1.65
2019-01-15T01:48:17.194Z,1.69
2019-01-15T01:50:48.277Z,1.72
2019-01-15T01:53:17.637Z,1.68
2019-01-15T01:55:46.415Z,1.71
2019-01-15T01:58:14.931Z,1.67
2019-01-15T02:00:44.178Z,1.68
2019-01-15T02:03:16.328Z,1.64
2019-01-15T02:05:47.966Z,1.69
2019-01-15T02:08:16.690Z,1.69
2019-01-15T02:10:44.943Z,1.77
2019-01-15T02:13:13.434Z,1.76
2019-01-15T02:15:42.092Z,1.70
2019-01-15T02:18:11.729Z,1.70
2019-01-15T02:20:41.478Z,1.82
2019-01-15T02:23:10.430Z,1.71
2019-01-15T02:25:42.161Z,1.62
2019-01-15T02:28:12.680Z,1.65
2019-01-15T02:30:45.690Z,1.70
2019-01-15T02:33:14.419Z,1.68
2019-01-15T02:35:43.818Z,1.68
2019-01-15T02:38:12.514Z,1.73
2019-01-15T02:40:41.310Z,1.76
2019-01-15T02:43:10.186Z,1.68
2019-01-15T02:45:41.420Z,1.68
2019-01-15T02:48:09.767Z,1.65
2019-01-15T02:50:42.046Z,1.65
2019-01-15T02:53:10.606Z,1.71
2019-01-15T02:55:40.345Z,1.68
2019-01-15T02:58:10.040Z,1.71
2019-01-15T03:00:39.941Z,1.78
2019-01-15T03:03:09.337Z,1.78
2019-01-15T03:05:38.541Z,1.79
2019-01-15T03:08:07.209Z,1.87
2019-01-15T03:10:36.350Z,1.83
2019-01-15T03:13:05.119Z,1.85
2019-01-15T03:15:33.715Z,1.88
2019-01-15T03:18:03.396Z,1.86
2019-01-15T03:20:32.893Z,1.84
2019-01-15T03:23:02.807Z,1.82
2019-01-15T03:25:31.444Z,1.90
2019-01-15T03:28:01.752Z,1.86
2019-01-15T03:30:30.911Z,1.77
2019-01-15T03:33:00.727Z,1.81
2019-01-15T03:35:29.878Z,1.86
2019-01-15T03:37:58.419Z,1.88
2019-01-15T03:40:27.213Z,1.88
2019-01-15T03:43:03.167Z,1.90
2019-01-15T03:45:27.368Z,1.94
2019-01-15T03:47:56.000Z,1.95
2019-01-15T03:50:24.498Z,1.93
2019-01-15T03:52:53.954Z,1.92
2019-01-15T03:55:23.273Z,1.90
2019-01-15T03:57:52.199Z,1.92
2019-01-15T04:00:22.795Z,1.96
2019-01-15T04:02:56.391Z,2.01
2019-01-15T04:05:25.449Z,2.01
2019-01-15T04:07:56.042Z,2.03
2019-01-15T04:10:25.808Z,2.09
2019-01-15T04:12:54.210Z,2.02
2019-01-15T04:15:23.670Z,2.02
2019-01-15T04:17:55.364Z,2.02
2019-01-15T04:20:24.410Z,2.00
2019-01-15T04:22:55.873Z,2.17
2019-01-15T04:25:24.592Z,2.07
2019-01-15T04:27:53.052Z,2.07
2019-01-15T04:30:22.916Z,2.17
2019-01-15T04:32:51.896Z,2.29
2019-01-15T04:35:20.820Z,2.23
2019-01-15T04:37:49.883Z,2.23
2019-01-15T04:40:20.030Z,2.29
2019-01-15T04:42:49.218Z,2.32
2019-01-15T04:45:19.840Z,2.35
2019-01-15T04:47:48.345Z,2.34
2019-01-15T04:50:16.908Z,2.31
2019-01-15T04:52:51.288Z,2.42
2019-01-15T04:55:19.801Z,2.47
2019-01-15T04:57:49.696Z,2.49
2019-01-15T05:00:19.436Z,2.50
2019-01-15T05:02:49.013Z,2.53
2019-01-15T05:05:17.800Z,2.58
2019-01-15T05:07:50.198Z,2.56
2019-01-15T05:10:19.348Z,2.62
2019-01-15T05:12:51.326Z,2.58
2019-01-15T05:19:31.510Z,2.66
2019-01-15T05:22:01.230Z,2.63
2019-01-15T05:24:31.484Z,2.65
2019-01-15T05:27:00.889Z,2.70
2019-01-15T05:29:30.687Z,2.70
2019-01-15T05:31:59.234Z,2.74
2019-01-15T05:34:28.787Z,2.70
2019-01-15T05:36:58.184Z,2.81
2019-01-15T05:39:28.299Z,2.74
2019-01-15T05:41:56.684Z,2.75
2019-01-15T05:44:28.382Z,2.74
2019-01-15T05:46:57.226Z,2.83
2019-01-15T05:49:26.615Z,2.73
2019-01-15T05:51:55.176Z,2.86
2019-01-15T05:54:23.988Z,2.81
2019-01-15T05:56:52.822Z,2.79
2019-01-15T05:59:24.306Z,2.85
2019-01-15T06:01:54.580Z,2.92
2019-01-15T06:04:23.647Z,2.94
2019-01-15T06:06:55.172Z,2.90
2019-01-15T06:09:24.318Z,2.97
2019-01-15T06:11:55.603Z,2.99
2019-01-15T06:14:25.372Z,2.96
2019-01-15T06:16:54.669Z,3.01
2019-01-15T06:19:26.474Z,2.97
2019-01-15T06:21:57.217Z,2.99
2019-01-15T06:24:38.442Z,3.06
2019-01-15T06:27:21.382Z,3.11
2019-01-15T06:29:51.718Z,3.11
2019-01-15T06:32:22.671Z,3.14
2019-01-15T06:34:52.699Z,3.12
2019-01-15T06:37:21.873Z,3.14
2019-01-15T06:39:51.105Z,3.26
2019-01-15T06:42:22.255Z,3.29
2019-01-15T06:44:54.617Z,3.28
2019-01-15T06:47:24.045Z,3.22
2019-01-15T06:49:52.553Z,3.29
2019-01-15T06:52:21.085Z,3.31
2019-01-15T06:54:50.390Z,3.31
2019-01-15T06:57:18.974Z,3.34
2019-01-15T06:59:47.464Z,3.34
2019-01-15T07:02:18.003Z,3.34
2019-01-15T07:04:46.938Z,3.39
2019-01-15T07:07:16.548Z,3.38
2019-01-15T07:09:45.503Z,3.41
2019-01-15T07:12:14.565Z,3.42
2019-01-15T07:14:44.729Z,3.41
2019-01-15T07:17:13.977Z,3.44
2019-01-15T07:19:43.898Z,3.52
2019-01-15T07:22:14.133Z,3.46
2019-01-15T07:24:46.638Z,3.51
2019-01-15T07:27:16.206Z,3.52
2019-01-15T07:29:45.816Z,3.52
2019-01-15T07:32:14.986Z,3.58
2019-01-15T07:34:44.723Z,3.65
2019-01-15T07:37:14.744Z,3.58
2019-01-15T07:39:43.486Z,3.63
2019-01-15T07:42:13.031Z,3.65
2019-01-15T07:44:44.520Z,3.73
2019-01-15T07:47:17.704Z,3.80
2019-01-15T07:49:47.249Z,3.77
2019-01-15T07:52:18.564Z,3.82
2019-01-15T07:54:47.175Z,3.82
2019-01-15T07:57:19.491Z,3.86
2019-01-15T07:59:48.896Z,3.85
2019-01-15T08:02:19.079Z,3.87
2019-01-15T08:04:52.240Z,3.91
2019-01-15T08:07:21.414Z,3.94
2019-01-15T08:09:51.117Z,3.98
2019-01-15T08:12:19.781Z,3.99
2019-01-15T08:14:49.381Z,4.06
2019-01-15T08:17:17.753Z,4.04
2019-01-15T08:19:46.678Z,4.10
2019-01-15T08:22:16.117Z,4.14
2019-01-15T08:24:45.276Z,4.09
2019-01-15T08:27:14.150Z,4.19
2019-01-15T08:29:43.208Z,4.22
2019-01-15T08:32:15.128Z,4.14
2019-01-15T08:34:44.210Z,4.22
2019-01-15T08:37:14.143Z,4.25
2019-01-15T08:39:45.685Z,4.22
2019-01-15T08:42:14.410Z,4.20
2019-01-15T08:44:44.909Z,4.33
2019-01-15T08:47:14.168Z,4.33
2019-01-15T08:49:47.619Z,4.32
2019-01-15T08:52:16.861Z,4.33
2019-01-15T08:54:45.355Z,4.34
2019-01-15T08:57:14.340Z,4.37
2019-01-15T08:59:43.433Z,4.42
2019-01-15T09:02:13.739Z,4.47
2019-01-15T09:04:42.927Z,4.63
2019-01-15T09:07:11.444Z,4.61
2019-01-15T09:09:39.746Z,4.72
2019-01-15T09:12:08.394Z,4.71
2019-01-15T09:14:37.210Z,4.64
2019-01-15T09:17:11.019Z,4.66
2019-01-15T09:19:37.538Z,4.72
2019-01-15T09:22:07.172Z,4.81
2019-01-15T09:24:35.628Z,4.72
2019-01-15T09:27:04.377Z,4.73
2019-01-15T09:29:35.694Z,4.84
2019-01-15T09:32:06.458Z,4.89
2019-01-15T09:34:35.204Z,4.91
2019-01-15T09:37:09.163Z,4.91
2019-01-15T09:39:45.607Z,4.93
2019-01-15T09:42:21.705Z,4.94
2019-01-15T09:44:51.817Z,5.00
2019-01-15T09:47:20.324Z,5.15
2019-01-15T09:49:48.934Z,5.14
2019-01-15T09:52:20.444Z,5.23
2019-01-15T09:54:48.612Z,5.11
2019-01-15T09:57:17.654Z,5.16
2019-01-15T09:59:46.873Z,5.24
2019-01-15T10:02:15.609Z,5.14
2019-01-15T10:04:45.285Z,5.20
2019-01-15T10:07:14.886Z,5.24
2019-01-15T10:09:45.349Z,5.26
2019-01-15T10:12:14.031Z,5.30
2019-01-15T10:14:43.420Z,5.27
2019-01-15T10:17:12.236Z,5.29
2019-01-15T10:19:40.586Z,5.30
2019-01-15T10:22:09.224Z,5.42
2019-01-15T10:24:38.547Z,5.44
2019-01-15T10:27:07.602Z,5.52
2019-01-15T10:29:37.029Z,5.46
2019-01-15T10:32:37.575Z,5.52
2019-01-15T10:35:20.923Z,5.53
2019-01-15T10:37:50.826Z,5.48
2019-01-15T10:40:19.697Z,5.48
2019-01-15T10:42:48.498Z,5.56
2019-01-15T10:45:17.828Z,5.56
2019-01-15T10:47:47.534Z,5.61
2019-01-15T10:50:20.900Z,5.59
2019-01-15T10:52:49.497Z,5.60
2019-01-15T10:55:18.801Z,5.54
2019-01-15T10:57:47.153Z,5.65
2019-01-15T11:00:15.974Z,5.65
2019-01-15T11:02:45.049Z,5.65
2019-01-15T11:05:14.251Z,5.69
2019-01-15T11:07:44.330Z,5.66
2019-01-15T11:10:14.311Z,5.72
2019-01-15T11:12:45.740Z,5.74
2019-01-15T11:15:14.372Z,5.79
2019-01-15T11:17:42.849Z,5.77
2019-01-15T11:20:13.084Z,5.72
2019-01-15T11:22:41.581Z,5.75
2019-01-15T11:25:11.460Z,5.76
2019-01-15T11:27:40.829Z,5.77
2019-01-15T11:30:10.957Z,5.83
2019-01-15T11:32:40.747Z,5.93
2019-01-15T11:35:10.873Z,5.91
2019-01-15T11:37:40.787Z,5.96
2019-01-15T11:40:09.348Z,5.92
2019-01-15T11:42:37.813Z,6.01
2019-01-15T11:45:07.979Z,6.05
2019-01-15T11:47:36.421Z,6.07
2019-01-15T11:50:11.743Z,6.05
2019-01-15T11:52:40.151Z,6.01
2019-01-15T11:55:10.678Z,6.01
2019-01-15T11:57:39.447Z,6.12
2019-01-15T12:00:14.108Z,6.20
2019-01-15T12:02:54.259Z,6.23
2019-01-15T12:05:45.212Z,6.29
2019-01-15T12:08:33.534Z,6.28
2019-01-15T12:11:21.040Z,6.44
2019-01-15T12:14:19.054Z,6.47
2019-01-15T12:17:08.126Z,6.39
2019-01-15T12:20:16.423Z,6.48
2019-01-15T12:23:11.492Z,6.39
2019-01-15T12:26:03.100Z,6.46
2019-01-15T12:28:46.196Z,6.58
2019-01-15T12:31:34.623Z,6.59
2019-01-15T12:34:23.044Z,6.58
2019-01-15T12:37:14.315Z,6.46
2019-01-15T12:40:00.006Z,6.48
2019-01-15T12:42:47.668Z,6.50
2019-01-15T12:45:45.611Z,6.54
2019-01-15T12:48:43.887Z,6.46
2019-01-15T12:51:42.180Z,6.61
2019-01-15T12:54:26.970Z,6.56
2019-01-15T12:57:31.253Z,6.39
2019-01-15T13:00:35.338Z,6.42
2019-01-15T13:03:33.362Z,6.40
2019-01-15T13:06:40.282Z,6.61
2019-01-15T13:09:45.414Z,6.54
2019-01-15T13:12:36.379Z,6.36
2019-01-15T13:15:34.685Z,6.35
2019-01-15T13:18:23.218Z,6.31
2019-01-15T13:21:10.484Z,6.32
2019-01-15T13:24:00.208Z,6.38
2019-01-15T13:26:48.615Z,6.37
2019-01-15T13:29:56.467Z,6.35
2019-01-15T13:32:45.538Z,6.34
2019-01-15T13:35:46.167Z,6.39
2019-01-15T13:38:41.306Z,6.49
2019-01-15T13:41:23.047Z,6.61
2019-01-15T13:44:11.616Z,6.53
2019-01-15T13:47:10.222Z,6.54
2019-01-15T13:49:58.945Z,6.50
2019-01-15T13:52:46.200Z,6.48
2019-01-15T13:55:35.014Z,6.49
2019-01-15T13:58:12.445Z,6.57
2019-01-15T14:00:54.566Z,6.58
2019-01-15T14:03:46.394Z,6.60
2019-01-15T14:06:37.526Z,6.71
2019-01-15T14:09:32.877Z,6.64
2019-01-15T14:12:36.944Z,6.54
2019-01-15T14:15:41.170Z,6.45
2019-01-15T14:18:34.036Z,6.43
2019-01-15T14:21:23.473Z,6.39
2019-01-15T14:24:15.520Z,6.41
2019-01-15T14:27:09.106Z,6.30
2019-01-15T14:30:04.588Z,6.28
2019-01-15T14:32:58.606Z,6.37
2019-01-15T14:35:45.962Z,6.30
2019-01-15T14:38:53.097Z,6.31
2019-01-15T14:41:40.145Z,6.29
2019-01-15T14:44:43.902Z,6.38
2019-01-15T14:47:48.291Z,6.34
2019-01-15T14:50:33.505Z,6.32
2019-01-15T14:53:20.464Z,6.34
2019-01-15T14:56:24.116Z,6.30
2019-01-15T14:59:11.683Z,6.37
2019-01-15T15:02:04.991Z,6.32
2019-01-15T15:05:00.763Z,6.32
2019-01-15T15:07:53.133Z,6.34
2019-01-15T15:10:41.130Z,6.28
2019-01-15T15:13:33.307Z,6.33
2019-01-15T15:16:26.711Z,6.35
2019-01-15T15:19:15.892Z,6.30
2019-01-15T15:22:13.222Z,6.35
2019-01-15T15:25:00.849Z,6.30
2019-01-15T15:27:43.357Z,6.31
2019-01-15T15:30:34.077Z,6.31
2019-01-15T15:33:24.304Z,6.31
2019-01-15T15:36:14.141Z,6.27
2019-01-15T15:38:57.954Z,6.30
2019-01-15T15:41:45.653Z,6.28
2019-01-15T15:44:34.185Z,6.25
2019-01-15T15:47:24.022Z,6.28
2019-01-15T15:50:24.879Z,6.27
2019-01-15T15:53:12.960Z,6.25
2019-01-15T15:56:03.493Z,6.21
2019-01-15T15:58:51.570Z,6.24
2019-01-15T16:01:36.889Z,6.19
2019-01-15T16:04:25.921Z,6.18
2019-01-15T16:07:32.423Z,6.16
2019-01-15T16:10:29.707Z,6.18
2019-01-15T16:13:17.301Z,6.19
2019-01-15T16:16:03.980Z,6.17
2019-01-15T16:19:07.492Z,6.16
2019-01-15T16:22:00.290Z,6.23
2019-01-15T16:24:54.652Z,6.23
2019-01-15T16:27:41.082Z,6.24
2019-01-15T16:30:28.219Z,6.20
2019-01-15T16:33:23.876Z,6.18
2019-01-15T16:36:23.652Z,6.18
2019-01-15T16:39:12.165Z,6.22
2019-01-15T16:42:01.361Z,6.27
2019-01-15T16:44:44.802Z,6.25
2019-01-15T16:47:23.140Z,6.25
2019-01-15T16:50:02.930Z,6.33
2019-01-15T16:52:54.493Z,6.26
2019-01-15T16:55:43.723Z,6.23
2019-01-15T16:58:50.482Z,6.27
2019-01-15T17:01:47.443Z,6.25
2019-01-15T17:04:49.388Z,6.30
2019-01-15T17:07:38.386Z,6.27
2019-01-15T17:10:36.664Z,6.29
2019-01-15T17:13:28.073Z,6.22
2019-01-15T17:16:33.326Z,6.28
2019-01-15T17:19:29.052Z,6.29
2019-01-15T17:22:26.379Z,6.29
2019-01-15T17:25:22.004Z,6.31
2019-01-15T17:28:03.435Z,6.27
2019-01-15T17:31:10.058Z,6.32
2019-01-15T17:34:07.787Z,6.35
2019-01-15T17:37:12.883Z,6.38
2019-01-15T17:40:03.450Z,6.38
2019-01-15T17:43:02.420Z,6.35
2019-01-15T17:45:52.280Z,6.38
2019-01-15T17:48:56.740Z,6.41
2019-01-15T17:51:44.168Z,6.39
2019-01-15T17:54:48.837Z,6.41
2019-01-15T17:57:35.886Z,6.49
2019-01-15T18:00:25.190Z,6.41
2019-01-15T18:03:17.980Z,6.44
2019-01-15T18:06:12.405Z,6.42
2019-01-15T18:08:58.953Z,6.46
2019-01-15T18:12:02.915Z,6.44
2019-01-15T18:14:54.465Z,6.50
2019-01-15T18:17:49.509Z,6.46
2019-01-15T18:20:40.487Z,6.44
2019-01-15T18:23:39.088Z,6.47
2019-01-15T18:26:30.138Z,6.51
2019-01-15T18:29:18.734Z,6.49
2019-01-15T18:32:23.818Z,6.49
2019-01-15T18:35:16.366Z,6.49
2019-01-15T18:38:10.452Z,6.53
2019-01-15T18:41:06.074Z,6.51
2019-01-15T18:43:55.383Z,6.53
2019-01-15T18:46:45.309Z,6.49
2019-01-15T18:49:35.034Z,6.47
2019-01-15T18:52:24.432Z,6.56
2019-01-15T18:55:22.672Z,6.59
2019-01-15T18:58:31.110Z,6.57
2019-01-15T19:01:25.535Z,6.55
2019-01-15T19:04:15.152Z,6.62
2019-01-15T19:07:03.050Z,6.58
2019-01-15T19:10:01.363Z,6.58
2019-01-15T19:12:51.957Z,6.56
2019-01-15T19:15:43.945Z,6.58
2019-01-15T19:18:41.323Z,6.55
2019-01-15T19:21:50.951Z,6.60
2019-01-15T19:24:57.419Z,6.59
2019-01-15T19:28:06.077Z,6.53
2019-01-15T19:31:12.766Z,6.56
2019-01-15T19:34:04.142Z,6.59
2019-01-15T19:37:11.613Z,6.61
2019-01-15T19:40:10.307Z,6.64
2019-01-15T19:42:58.349Z,6.61
2019-01-15T19:45:56.937Z,6.67
2019-01-15T19:48:41.428Z,6.60
2019-01-15T19:51:38.673Z,6.60
2019-01-15T19:54:33.449Z,6.60
2019-01-15T19:57:17.431Z,6.57
2019-01-15T20:00:06.468Z,6.55
2019-01-15T20:02:55.646Z,6.55
2019-01-15T20:05:46.993Z,6.56
2019-01-15T20:08:37.264Z,6.50
2019-01-15T20:11:24.693Z,6.47
2019-01-15T20:14:22.040Z,6.41
2019-01-15T20:17:18.348Z,6.38
2019-01-15T20:20:02.778Z,6.33
2019-01-15T20:22:51.126Z,6.31
2019-01-15T20:25:36.305Z,6.36
2019-01-15T20:28:47.241Z,6.38
2019-01-15T20:31:36.636Z,6.36
2019-01-15T20:34:22.346Z,6.37
2019-01-15T20:37:09.984Z,6.33
2019-01-15T20:39:59.146Z,6.32
2019-01-15T20:43:03.291Z,6.26
2019-01-15T20:45:57.809Z,6.30
2019-01-15T20:48:49.398Z,6.29
2019-01-15T20:51:46.710Z,6.35
2019-01-15T20:54:32.176Z,6.40
2019-01-15T20:57:32.195Z,6.39
2019-01-15T21:00:19.629Z,6.42
2019-01-15T21:03:25.790Z,6.45
2019-01-15T21:06:30.318Z,6.46
2019-01-15T21:09:19.015Z,6.46
2019-01-15T21:12:11.823Z,6.49
2019-01-15T21:15:11.215Z,6.43
2019-01-15T21:18:02.888Z,6.42
2019-01-15T21:20:57.248Z,6.46
2019-01-15T21:23:46.232Z,6.48
2019-01-15T21:26:31.582Z,6.50
2019-01-15T21:29:46.269Z,6.50
2019-01-15T21:32:38.419Z,6.49
2019-01-15T21:35:27.173Z,6.48
2019-01-15T21:38:22.608Z,6.44
2019-01-15T21:41:30.291Z,6.44
2019-01-15T21:44:20.783Z,6.44
2019-01-15T21:47:09.774Z,6.45
2019-01-15T21:50:17.027Z,6.37
2019-01-15T21:53:03.854Z,6.41
2019-01-15T21:55:42.997Z,6.46
2019-01-15T21:58:29.246Z,6.41
2019-01-15T22:01:16.718Z,6.47
2019-01-15T22:04:14.598Z,6.44
2019-01-15T22:07:21.691Z,6.43
2019-01-15T22:10:11.668Z,6.44
2019-01-15T22:12:53.298Z,6.40
2019-01-15T22:15:41.231Z,6.36
2019-01-15T22:18:27.961Z,6.38
2019-01-15T22:21:25.837Z,6.41
2019-01-15T22:24:14.469Z,6.35
2019-01-15T22:27:04.563Z,6.37
2019-01-15T22:29:51.381Z,6.38
2019-01-15T22:32:46.826Z,6.36
2019-01-15T22:35:42.719Z,6.40
2019-01-15T22:38:40.897Z,6.42
2019-01-15T22:41:35.697Z,6.38
2019-01-15T22:44:24.773Z,6.35
2019-01-15T22:47:13.023Z,6.37
2019-01-15T22:50:02.413Z,6.36
2019-01-15T22:52:52.309Z,6.44
2019-01-15T22:55:34.014Z,6.37
2019-01-15T22:58:25.539Z,6.44
2019-01-15T23:01:15.841Z,6.32
2019-01-15T23:04:08.108Z,6.34
2019-01-15T23:06:59.546Z,6.32
2019-01-15T23:09:48.707Z,6.34
2019-01-15T23:12:38.088Z,6.30
2019-01-15T23:15:42.317Z,6.33
2019-01-15T23:18:46.045Z,6.30
2019-01-15T23:21:52.327Z,6.29
2019-01-15T23:24:57.452Z,6.23
2019-01-15T23:28:01.169Z,6.29
2019-01-15T23:30:48.759Z,6.26
2019-01-15T23:33:43.726Z,6.23
2019-01-15T23:36:24.397Z,6.21
2019-01-15T23:39:16.331Z,6.24
2019-01-15T23:42:00.237Z,6.23
2019-01-15T23:44:50.426Z,6.22
2019-01-15T23:47:47.887Z,6.28
2019-01-15T23:50:28.560Z,6.31
2019-01-15T23:53:20.292Z,6.32
2019-01-15T23:56:06.295Z,6.30
2019-01-15T23:58:54.951Z,6.33
